Time;durP1;ratioP1;P1;durP2;ratioP2;P2;SDS_P1;SDS_P2;PMS_P1;PMS_P2;Temp;Humidity;BMP_temperature;BMP_pressure;BME280_temperature;BME280_humidity;BME280_pressure;Samples;Min_cycle;Max_cycle;Signal;HPM_P1;HPM_P2
2023/09/30 00:01:44;;;;;;;7.90;3.53;;;16.10;93.80;;;;;;5073430;28;20464;-57
2023/09/30 00:04:12;;;;;;;3.60;2.70;;;16.10;93.80;;;;;;5073668;28;20476;-57
2023/09/30 00:06:39;;;;;;;4.50;3.13;;;15.90;93.60;;;;;;5073467;28;20544;-57
2023/09/30 00:09:07;;;;;;;4.90;2.60;;;15.90;93.50;;;;;;5073166;28;20818;-57
2023/09/30 00:11:34;;;;;;;6.00;3.90;;;15.80;93.30;;;;;;5073250;28;20495;-56
2023/09/30 00:14:01;;;;;;;5.63;2.70;;;15.70;93.30;;;;;;5073098;28;20452;-56
2023/09/30 00:16:28;;;;;;;5.33;3.13;;;15.70;93.50;;;;;;5073341;28;20471;-57
2023/09/30 00:18:54;;;;;;;5.20;3.80;;;15.60;93.60;;;;;;5073268;28;20436;-57
2023/09/30 00:21:23;;;;;;;8.00;3.33;;;15.60;93.90;;;;;;5072960;28;20958;-56
2023/09/30 00:23:49;;;;;;;6.90;3.30;;;15.60;94.20;;;;;;5073145;28;20449;-57
2023/09/30 00:26:16;;;;;;;8.80;4.33;;;15.60;94.40;;;;;;5073251;28;20425;-57
2023/09/30 00:28:43;;;;;;;12.40;3.20;;;15.60;94.40;;;;;;5073235;28;20445;-57
2023/09/30 00:31:10;;;;;;;7.10;4.00;;;15.60;94.60;;;;;;5073055;28;20464;-57
2023/09/30 00:33:38;;;;;;;8.97;3.07;;;15.60;94.90;;;;;;5072818;28;20512;-57
2023/09/30 00:36:09;;;;;;;8.93;4.03;;;15.60;95.20;;;;;;5073129;28;20449;-57
2023/09/30 00:38:37;;;;;;;8.03;3.70;;;15.70;95.40;;;;;;5072865;28;20431;-57
2023/09/30 00:41:04;;;;;;;12.87;4.00;;;15.60;95.40;;;;;;5072970;28;20472;-57
2023/09/30 00:43:31;;;;;;;8.27;4.00;;;15.60;95.40;;;;;;5073105;28;20437;-56
2023/09/30 00:46:05;;;;;;;9.00;4.30;;;15.60;95.50;;;;;;5073124;28;20551;-57
2023/09/30 00:48:33;;;;;;;11.23;3.87;;;15.60;95.60;;;;;;5073999;28;20433;-57
2023/09/30 00:51:00;;;;;;;8.60;4.67;;;15.60;95.70;;;;;;5072743;28;20476;-57
2023/09/30 00:53:28;;;;;;;11.37;4.53;;;15.60;95.90;;;;;;5072887;28;20483;-57
2023/09/30 00:55:57;;;;;;;8.53;4.00;;;15.60;96.10;;;;;;5072989;28;20457;-57
2023/09/30 00:58:25;;;;;;;10.27;5.10;;;15.60;96.10;;;;;;5072949;28;20448;-57
2023/09/30 01:00:53;;;;;;;10.07;5.57;;;15.70;96.20;;;;;;5072845;28;20471;-57
2023/09/30 01:03:20;;;;;;;6.87;4.10;;;15.70;96.20;;;;;;5072859;28;20440;-56
2023/09/30 01:05:47;;;;;;;7.50;4.50;;;15.70;96.30;;;;;;5072923;28;20445;-56
2023/09/30 01:08:13;;;;;;;10.53;4.50;;;15.70;96.30;;;;;;5072921;28;20432;-57
2023/09/30 01:10:40;;;;;;;9.90;4.60;;;15.70;96.30;;;;;;5072497;28;21044;-57
2023/09/30 01:13:08;;;;;;;11.03;4.80;;;15.70;96.30;;;;;;5072637;28;20485;-57
2023/09/30 01:15:36;;;;;;;9.23;4.23;;;15.70;96.20;;;;;;5072832;28;20451;-57
2023/09/30 01:18:03;;;;;;;9.20;4.93;;;15.70;96.30;;;;;;5072472;28;20844;-57
2023/09/30 01:20:31;;;;;;;14.03;4.77;;;15.70;96.30;;;;;;5072760;28;20469;-57
2023/09/30 01:22:59;;;;;;;11.97;5.07;;;15.70;96.20;;;;;;5072640;28;20440;-57
2023/09/30 01:25:26;;;;;;;8.73;4.60;;;15.70;96.30;;;;;;5072806;28;20456;-57
2023/09/30 01:27:52;;;;;;;13.93;5.33;;;15.70;96.30;;;;;;5076559;28;20449;-57
2023/09/30 01:30:19;;;;;;;9.10;5.03;;;15.70;96.30;;;;;;5076286;28;20512;-57
2023/09/30 01:32:46;;;;;;;13.67;5.37;;;15.70;96.30;;;;;;5076058;28;20495;-56
2023/09/30 01:35:13;;;;;;;7.20;4.60;;;15.70;96.40;;;;;;5076286;28;20444;-57
2023/09/30 01:37:40;;;;;;;10.83;4.67;;;15.70;96.50;;;;;;5075856;28;20972;-57
2023/09/30 01:40:11;;;;;;;7.83;3.50;;;15.70;96.60;;;;;;5076064;28;20824;-56
2023/09/30 01:42:38;;;;;;;7.90;5.00;;;15.70;96.70;;;;;;5076134;28;20425;-57
2023/09/30 01:45:06;;;;;;;7.77;5.00;;;15.70;96.80;;;;;;5075930;28;20448;-57
2023/09/30 01:47:32;;;;;;;9.87;4.90;;;15.70;96.80;;;;;;5076592;28;20459;-57
2023/09/30 01:49:59;;;;;;;9.23;4.63;;;15.70;96.80;;;;;;5075943;28;20465;-57
2023/09/30 01:52:26;;;;;;;8.90;4.53;;;15.70;96.60;;;;;;5075747;28;20572;-57
2023/09/30 01:54:53;;;;;;;14.57;4.43;;;15.70;96.50;;;;;;5076397;28;20456;-57
2023/09/30 01:57:21;;;;;;;11.27;5.17;;;15.60;96.40;;;;;;5075841;28;20453;-57
2023/09/30 01:59:48;;;;;;;12.23;5.40;;;15.70;96.50;;;;;;5075722;28;20491;-57
2023/09/30 02:02:15;;;;;;;7.93;4.80;;;15.60;96.40;;;;;;5075658;28;20433;-57
2023/09/30 02:04:42;;;;;;;13.67;5.10;;;15.60;96.30;;;;;;5075658;28;20444;-57
2023/09/30 02:07:10;;;;;;;8.07;5.13;;;15.60;96.30;;;;;;5075640;28;20449;-57
2023/09/30 02:09:37;;;;;;;8.50;4.50;;;15.60;96.30;;;;;;5075614;28;20467;-57
2023/09/30 02:12:04;;;;;;;8.03;5.00;;;15.60;96.30;;;;;;5075483;28;20474;-57
2023/09/30 02:14:33;;;;;;;10.37;4.60;;;15.60;96.20;;;;;;5075463;28;20445;-57
2023/09/30 02:16:59;;;;;;;9.77;4.60;;;15.60;96.20;;;;;;5075488;28;20453;-57
2023/09/30 02:19:27;;;;;;;8.50;5.23;;;15.50;96.10;;;;;;5075363;28;20468;-57
2023/09/30 02:21:54;;;;;;;7.63;5.00;;;15.50;96.00;;;;;;5075539;28;20495;-57
2023/09/30 02:24:21;;;;;;;8.93;4.93;;;15.50;96.00;;;;;;5075062;28;20445;-57
2023/09/30 02:26:48;;;;;;;7.40;4.60;;;15.50;96.00;;;;;;5075228;28;20455;-57
2023/09/30 02:29:15;;;;;;;9.63;4.37;;;15.50;96.00;;;;;;5075242;28;20460;-57
2023/09/30 02:31:43;;;;;;;10.37;4.40;;;15.40;96.00;;;;;;5075142;28;20444;-57
2023/09/30 02:34:10;;;;;;;9.70;5.40;;;15.40;96.00;;;;;;5074655;28;20984;-56
2023/09/30 02:36:39;;;;;;;9.40;4.80;;;15.40;95.90;;;;;;5074683;28;20448;-57
2023/09/30 02:39:08;;;;;;;11.60;5.10;;;15.40;96.00;;;;;;5075111;28;20543;-56
2023/09/30 02:41:35;;;;;;;9.30;5.00;;;15.40;96.00;;;;;;5075063;28;20445;-56
2023/09/30 02:44:02;;;;;;;8.43;4.40;;;15.40;96.00;;;;;;5075065;28;20942;-56
2023/09/30 02:46:28;;;;;;;13.90;5.00;;;15.40;95.90;;;;;;5075047;28;20452;-56
2023/09/30 02:48:56;;;;;;;9.90;4.83;;;15.40;95.90;;;;;;5075509;28;20473;-56
2023/09/30 02:51:25;;;;;;;7.90;4.63;;;15.30;95.80;;;;;;5075076;28;20445;-57
2023/09/30 02:53:52;;;;;;;8.63;5.33;;;15.30;95.80;;;;;;5074869;28;20480;-56
2023/09/30 02:56:19;;;;;;;12.23;4.93;;;15.30;95.90;;;;;;5074973;28;20448;-56
2023/09/30 02:58:46;;;;;;;8.37;4.50;;;15.30;95.90;;;;;;5074819;28;20495;-56
2023/09/30 03:01:16;;;;;;;7.37;4.50;;;15.30;95.90;;;;;;5074651;28;20471;-57
2023/09/30 03:03:44;;;;;;;10.40;4.43;;;15.30;96.00;;;;;;5084980;28;20933;-56
2023/09/30 03:06:12;;;;;;;8.00;5.57;;;15.20;96.00;;;;;;5094821;28;20487;-57
2023/09/30 03:08:40;;;;;;;8.33;4.60;;;15.30;96.20;;;;;;5094842;28;20447;-56
2023/09/30 03:11:07;;;;;;;10.83;5.90;;;15.20;96.20;;;;;;5094669;28;20517;-57
2023/09/30 03:13:34;;;;;;;13.00;4.70;;;15.20;96.30;;;;;;5094448;28;20484;-56
2023/09/30 03:16:02;;;;;;;10.63;5.40;;;15.20;96.30;;;;;;5094593;28;20446;-57
2023/09/30 03:18:30;;;;;;;8.77;5.03;;;15.20;96.70;;;;;;5094582;28;20802;-56
2023/09/30 03:21:01;;;;;;;8.33;5.13;;;15.20;97.00;;;;;;5094399;28;20464;-56
2023/09/30 03:23:30;;;;;;;13.80;6.30;;;15.20;96.90;;;;;;5094299;28;20436;-56
2023/09/30 03:25:57;;;;;;;18.40;6.90;;;15.20;96.80;;;;;;5094608;28;20440;-56
2023/09/30 03:28:24;;;;;;;12.90;6.50;;;15.10;97.30;;;;;;5094308;28;20440;-56
2023/09/30 03:30:51;;;;;;;15.23;8.10;;;15.10;97.50;;;;;;5093949;28;21092;-56
2023/09/30 03:33:18;;;;;;;11.53;7.63;;;15.20;97.90;;;;;;5093854;28;20853;-56
2023/09/30 03:35:45;;;;;;;12.67;6.83;;;15.20;97.80;;;;;;5093971;28;20444;-56
2023/09/30 03:38:12;;;;;;;15.93;6.10;;;15.10;97.60;;;;;;5094121;28;20470;-56
2023/09/30 03:40:44;;;;;;;11.00;6.23;;;15.10;97.40;;;;;;5094055;28;20470;-56
2023/09/30 03:43:14;;;;;;;10.40;7.80;;;15.10;97.20;;;;;;5093667;28;20430;-56
2023/09/30 03:45:41;;;;;;;10.50;6.40;;;15.10;97.10;;;;;;5093995;28;20450;-56
2023/09/30 03:48:09;;;;;;;13.37;7.33;;;15.10;96.90;;;;;;5093172;28;20483;-56
2023/09/30 03:50:37;;;;;;;11.47;7.53;;;15.10;96.80;;;;;;5093811;28;20463;-56
2023/09/30 03:53:07;;;;;;;13.90;8.07;;;15.10;96.80;;;;;;5093830;28;20480;-56
2023/09/30 03:55:33;;;;;;;11.23;7.90;;;15.10;96.80;;;;;;5093907;28;20882;-56
2023/09/30 03:58:02;;;;;;;13.07;7.53;;;15.10;96.80;;;;;;5093851;28;20450;-57
2023/09/30 04:00:29;;;;;;;9.77;7.10;;;15.00;96.60;;;;;;5093635;28;20475;-56
2023/09/30 04:02:58;;;;;;;12.73;8.87;;;15.10;96.60;;;;;;5093738;28;20436;-56
2023/09/30 04:05:29;;;;;;;11.40;8.00;;;15.00;96.50;;;;;;5093669;28;20459;-56
2023/09/30 04:07:56;;;;;;;14.03;8.83;;;15.00;96.40;;;;;;5093373;28;20428;-56
2023/09/30 04:10:23;;;;;;;13.93;8.43;;;15.00;96.50;;;;;;5093334;28;20460;-56
2023/09/30 04:12:50;;;;;;;12.13;8.53;;;15.00;96.50;;;;;;5093768;28;20502;-56
2023/09/30 04:15:19;;;;;;;15.57;8.83;;;14.90;96.40;;;;;;5093667;28;20945;-56
2023/09/30 04:17:45;;;;;;;12.17;7.97;;;14.90;96.40;;;;;;5093678;28;20487;-56
2023/09/30 04:20:16;;;;;;;14.40;9.60;;;14.90;96.50;;;;;;5093528;28;20843;-56
2023/09/30 04:22:45;;;;;;;12.07;9.57;;;14.90;96.80;;;;;;5093616;28;20428;-56
2023/09/30 04:25:13;;;;;;;13.30;9.13;;;15.00;97.20;;;;;;5093031;28;20471;-56
2023/09/30 04:27:39;;;;;;;13.70;10.33;;;15.00;97.10;;;;;;5093456;28;20444;-56
2023/09/30 04:30:08;;;;;;;11.40;9.77;;;15.00;97.40;;;;;;5093253;28;20464;-56
2023/09/30 04:32:38;;;;;;;18.47;10.30;;;15.00;97.10;;;;;;5093373;28;20443;-56
2023/09/30 04:35:05;;;;;;;13.53;9.90;;;15.00;97.60;;;;;;5093355;28;20507;-56
2023/09/30 04:37:32;;;;;;;14.40;9.93;;;14.90;97.50;;;;;;5093437;28;20448;-56
2023/09/30 04:39:59;;;;;;;10.57;8.90;;;14.90;97.20;;;;;;5093325;28;20868;-57
2023/09/30 04:42:26;;;;;;;13.60;8.97;;;14.90;96.90;;;;;;5093314;28;20467;-57
2023/09/30 04:44:52;;;;;;;13.50;9.67;;;14.80;96.60;;;;;;5093212;28;20475;-56
2023/09/30 04:47:19;;;;;;;14.03;9.40;;;14.80;96.50;;;;;;5092977;28;20951;-56
2023/09/30 04:49:47;;;;;;;12.10;8.83;;;14.80;96.40;;;;;;5092992;28;20496;-57
2023/09/30 04:52:14;;;;;;;12.97;9.23;;;14.80;96.70;;;;;;5092931;28;20940;-57
2023/09/30 04:54:41;;;;;;;13.10;10.73;;;14.80;96.30;;;;;;5093108;28;20502;-57
2023/09/30 04:57:08;;;;;;;11.57;9.97;;;14.80;96.30;;;;;;5093144;28;20798;-57
2023/09/30 04:59:35;;;;;;;11.13;9.93;;;14.80;96.40;;;;;;5093131;28;20460;-57
2023/09/30 05:02:01;;;;;;;13.30;10.63;;;14.80;96.50;;;;;;5096425;28;20953;-57
2023/09/30 05:04:29;;;;;;;15.10;10.53;;;14.80;96.60;;;;;;5096806;28;20941;-57
2023/09/30 05:06:57;;;;;;;18.73;12.83;;;14.80;96.60;;;;;;5096748;28;20937;-57
2023/09/30 05:09:25;;;;;;;14.77;11.10;;;14.80;96.70;;;;;;5097055;28;20467;-56
2023/09/30 05:11:53;;;;;;;12.27;10.67;;;14.80;96.70;;;;;;5096649;28;20828;-57
2023/09/30 05:14:21;;;;;;;11.60;9.60;;;14.70;96.60;;;;;;5096524;28;21016;-56
2023/09/30 05:16:47;;;;;;;13.17;9.50;;;14.70;96.40;;;;;;5097004;28;20538;-57
2023/09/30 05:19:14;;;;;;;15.93;10.30;;;14.70;96.40;;;;;;5096772;28;20467;-57
2023/09/30 05:21:41;;;;;;;13.00;10.43;;;14.60;96.30;;;;;;5096782;28;20444;-57
2023/09/30 05:24:10;;;;;;;14.93;10.17;;;14.60;96.30;;;;;;5096560;28;20452;-57
2023/09/30 05:26:37;;;;;;;18.80;11.93;;;14.60;96.30;;;;;;5096666;28;20450;-57
2023/09/30 05:29:04;;;;;;;14.27;10.80;;;14.60;96.20;;;;;;5096562;28;20439;-57
2023/09/30 05:31:30;;;;;;;15.30;10.07;;;14.60;96.20;;;;;;5096498;28;20454;-56
2023/09/30 05:33:57;;;;;;;12.23;10.07;;;14.60;96.10;;;;;;5095074;28;20486;-57
2023/09/30 05:36:24;;;;;;;14.97;10.00;;;14.60;96.10;;;;;;5096462;28;20444;-57
2023/09/30 05:38:50;;;;;;;14.80;10.13;;;14.50;96.10;;;;;;5096297;28;20448;-57
2023/09/30 05:41:20;;;;;;;16.77;10.47;;;14.50;96.10;;;;;;5096411;28;20479;-57
2023/09/30 05:43:47;;;;;;;12.40;10.33;;;14.50;96.10;;;;;;5096296;28;20447;-57
2023/09/30 05:46:14;;;;;;;12.83;10.27;;;14.50;96.20;;;;;;5096333;28;20862;-57
2023/09/30 05:48:41;;;;;;;14.87;10.30;;;14.50;96.20;;;;;;5096315;28;20443;-57
2023/09/30 05:51:08;;;;;;;14.70;10.50;;;14.50;96.10;;;;;;5096135;28;20464;-57
2023/09/30 05:53:36;;;;;;;14.63;10.60;;;14.50;96.10;;;;;;5096111;28;20479;-57
2023/09/30 05:56:03;;;;;;;13.37;10.40;;;14.50;96.10;;;;;;5096176;28;20443;-57
2023/09/30 05:58:31;;;;;;;14.87;11.20;;;14.50;96.30;;;;;;5096062;28;20450;-57
2023/09/30 06:01:00;;;;;;;14.43;10.80;;;14.50;96.70;;;;;;5095656;28;20471;-57
2023/09/30 06:03:29;;;;;;;17.93;12.87;;;14.50;96.50;;;;;;5095719;28;20820;-57
2023/09/30 06:05:56;;;;;;;15.67;11.00;;;14.50;96.50;;;;;;5095909;28;20452;-57
2023/09/30 06:08:22;;;;;;;17.30;12.47;;;14.50;96.60;;;;;;5095833;28;20474;-57
2023/09/30 06:10:49;;;;;;;19.90;12.67;;;14.50;96.60;;;;;;5095846;28;20464;-57
2023/09/30 06:13:16;;;;;;;13.63;11.60;;;14.50;96.80;;;;;;5095087;28;20467;-56
2023/09/30 06:15:46;;;;;;;17.17;12.17;;;14.50;96.80;;;;;;5095745;28;20539;-57
2023/09/30 06:18:14;;;;;;;15.67;12.00;;;14.50;96.80;;;;;;5095402;28;20898;-57
2023/09/30 06:20:41;;;;;;;15.30;11.07;;;14.50;96.80;;;;;;5095473;28;20559;-57
2023/09/30 06:23:09;;;;;;;17.57;12.20;;;14.50;97.10;;;;;;5095506;28;20452;-57
2023/09/30 06:25:36;;;;;;;16.53;12.00;;;14.50;96.80;;;;;;5095161;28;20535;-57
2023/09/30 06:28:04;;;;;;;15.40;11.90;;;14.50;96.80;;;;;;5095467;28;20475;-57
2023/09/30 06:30:33;;;;;;;15.13;11.73;;;14.50;96.90;;;;;;5095460;28;20499;-57
2023/09/30 06:33:01;;;;;;;18.23;10.70;;;14.50;97.10;;;;;;5095291;28;20447;-57
2023/09/30 06:35:29;;;;;;;12.70;9.83;;;14.50;97.20;;;;;;5095290;28;20467;-57
2023/09/30 06:37:56;;;;;;;17.30;11.60;;;14.50;97.30;;;;;;5095042;28;20479;-57
2023/09/30 06:40:23;;;;;;;18.37;11.07;;;14.60;97.60;;;;;;5095242;28;20463;-57
2023/09/30 06:42:50;;;;;;;19.33;12.83;;;14.60;97.80;;;;;;5095269;28;20462;-57
2023/09/30 06:45:17;;;;;;;16.67;11.43;;;14.60;97.80;;;;;;5095447;28;20436;-57
2023/09/30 06:47:45;;;;;;;16.20;10.87;;;14.70;98.00;;;;;;5095163;28;20440;-57
2023/09/30 06:50:16;;;;;;;15.90;11.93;;;14.70;98.00;;;;;;5095001;28;20476;-57
2023/09/30 06:52:45;;;;;;;19.27;12.77;;;14.70;98.20;;;;;;5094720;28;20897;-56
2023/09/30 06:55:14;;;;;;;18.30;11.30;;;14.80;98.40;;;;;;5094909;28;20490;-57
2023/09/30 06:57:41;;;;;;;17.13;13.40;;;14.80;98.50;;;;;;5094968;28;20478;-57
2023/09/30 07:00:09;;;;;;;21.77;13.13;;;14.90;98.70;;;;;;5094779;28;20460;-57
2023/09/30 07:02:36;;;;;;;14.60;11.53;;;15.00;98.80;;;;;;5094857;28;20448;-57
2023/09/30 07:05:04;;;;;;;18.30;12.90;;;15.00;98.80;;;;;;5094846;28;20467;-57
2023/09/30 07:07:32;;;;;;;19.17;14.13;;;15.10;99.00;;;;;;5094781;28;20440;-57
2023/09/30 07:09:59;;;;;;;27.53;16.67;;;15.30;99.40;;;;;;5094590;28;20464;-57
2023/09/30 07:12:26;;;;;;;28.80;15.70;;;15.30;99.80;;;;;;5095499;28;20459;-57
2023/09/30 07:14:53;;;;;;;20.77;14.00;;;15.40;99.90;;;;;;5094437;28;20561;-57
2023/09/30 07:17:20;;;;;;;21.13;15.20;;;15.50;99.90;;;;;;5094596;28;20450;-57
2023/09/30 07:19:47;;;;;;;21.70;14.30;;;15.60;99.90;;;;;;5094591;28;20471;-57
2023/09/30 07:22:13;;;;;;;28.63;15.60;;;15.60;99.90;;;;;;5095539;28;20453;-57
2023/09/30 07:24:41;;;;;;;26.03;17.27;;;15.70;99.90;;;;;;5093334;28;20464;-57
2023/09/30 07:27:08;;;;;;;23.37;15.80;;;15.80;99.90;;;;;;5094468;28;20447;-57
2023/09/30 07:29:35;;;;;;;30.50;15.30;;;15.90;99.90;;;;;;5094335;28;20456;-57
2023/09/30 07:32:01;;;;;;;26.03;15.33;;;15.90;99.90;;;;;;5094379;28;20439;-57
2023/09/30 07:34:28;;;;;;;21.33;15.37;;;16.00;99.90;;;;;;5094264;28;20484;-57
2023/09/30 07:36:55;;;;;;;27.87;14.57;;;16.00;99.90;;;;;;5094518;28;20466;-57
2023/09/30 07:39:22;;;;;;;26.40;14.40;;;16.10;99.90;;;;;;5094291;28;20474;-57
2023/09/30 07:41:50;;;;;;;25.67;14.60;;;16.20;99.90;;;;;;5094213;28;20471;-57
2023/09/30 07:44:16;;;;;;;23.97;15.80;;;16.20;99.90;;;;;;5094127;28;20436;-57
2023/09/30 07:46:44;;;;;;;17.93;15.30;;;16.30;99.90;;;;;;5094079;28;20447;-57
2023/09/30 07:49:11;;;;;;;18.90;13.17;;;16.40;99.90;;;;;;5094018;28;20491;-57
2023/09/30 07:51:39;;;;;;;18.10;14.30;;;16.40;99.90;;;;;;5094690;28;20840;-57
2023/09/30 07:54:06;;;;;;;18.30;14.90;;;16.40;99.90;;;;;;5093978;28;20553;-57
2023/09/30 07:56:34;;;;;;;21.13;13.70;;;16.50;99.90;;;;;;5094003;28;20443;-57
2023/09/30 07:59:02;;;;;;;19.00;13.63;;;16.60;99.90;;;;;;5093628;28;20450;-57
2023/09/30 08:01:30;;;;;;;22.40;14.97;;;16.70;99.90;;;;;;5093827;28;20452;-57
2023/09/30 08:03:56;;;;;;;14.37;12.87;;;16.70;99.90;;;;;;5093813;28;20447;-57
2023/09/30 08:06:23;;;;;;;18.07;12.73;;;16.80;99.90;;;;;;5093829;28;20476;-57
2023/09/30 08:08:50;;;;;;;21.63;13.47;;;16.80;99.90;;;;;;5093657;28;20436;-57
2023/09/30 08:11:20;;;;;;;17.87;13.13;;;16.90;99.90;;;;;;5093638;28;20444;-57
2023/09/30 08:13:47;;;;;;;18.90;13.63;;;17.00;99.80;;;;;;5094173;28;20530;-57
2023/09/30 08:16:15;;;;;;;16.77;13.13;;;17.10;99.50;;;;;;5093525;28;20490;-57
2023/09/30 08:18:42;;;;;;;18.87;11.90;;;17.20;99.40;;;;;;5093422;28;20975;-57
2023/09/30 08:21:11;;;;;;;15.60;13.37;;;17.30;99.20;;;;;;5093573;28;20496;-57
2023/09/30 08:23:38;;;;;;;21.33;12.97;;;17.40;99.10;;;;;;5093459;28;20973;-58
2023/09/30 08:26:05;;;;;;;14.37;11.47;;;17.40;99.20;;;;;;5093640;28;20424;-57
2023/09/30 08:28:32;;;;;;;23.77;13.63;;;17.50;98.60;;;;;;5093512;28;20446;-57
2023/09/30 08:31:03;;;;;;;20.67;11.83;;;17.50;98.50;;;;;;5093339;28;20460;-57
2023/09/30 08:33:31;;;;;;;20.03;12.40;;;17.60;98.40;;;;;;5093504;28;20421;-57
2023/09/30 08:36:06;;;;;;;14.13;12.00;;;17.70;98.30;;;;;;5077414;28;20516;-56
2023/09/30 08:38:34;;;;;;;19.63;11.87;;;17.70;97.90;;;;;;5077395;28;20428;-57
2023/09/30 08:41:02;;;;;;;16.33;11.23;;;17.80;97.90;;;;;;5077378;28;20879;-57
2023/09/30 08:43:30;;;;;;;14.30;12.63;;;17.80;98.40;;;;;;5077244;28;20455;-57
2023/09/30 08:45:58;;;;;;;18.60;12.10;;;17.90;98.20;;;;;;5077310;28;20445;-57
2023/09/30 08:48:26;;;;;;;17.80;11.80;;;18.00;98.20;;;;;;5077204;28;20443;-57
2023/09/30 08:50:55;;;;;;;17.83;11.30;;;18.10;97.80;;;;;;5077090;28;20468;-57
2023/09/30 08:53:23;;;;;;;20.33;11.93;;;18.10;97.30;;;;;;5076753;28;20876;-57
2023/09/30 08:55:54;;;;;;;13.10;9.83;;;18.20;97.20;;;;;;5076982;28;20487;-57
2023/09/30 08:58:24;;;;;;;17.80;10.53;;;18.30;96.90;;;;;;5077071;28;20465;-57
2023/09/30 09:00:51;;;;;;;12.07;9.33;;;18.40;96.60;;;;;;5077102;28;20465;-57
2023/09/30 09:03:19;;;;;;;15.13;9.57;;;18.40;96.20;;;;;;5076921;28;20445;-57
2023/09/30 09:05:46;;;;;;;11.53;9.83;;;18.50;96.00;;;;;;5076907;28;20452;-57
2023/09/30 09:08:14;;;;;;;15.70;9.27;;;18.60;95.70;;;;;;5076807;28;20778;-58
2023/09/30 09:10:55;;;;;;;13.23;7.80;;;18.70;95.70;;;;;;5076668;28;20461;-57
2023/09/30 09:13:22;;;;;;;10.20;7.53;;;18.80;94.40;;;;;;5076774;28;20478;-57
2023/09/30 09:15:49;;;;;;;10.50;7.83;;;18.80;94.40;;;;;;5076654;28;20485;-58
2023/09/30 09:18:32;;;;;;;13.27;7.23;;;19.00;94.70;;;;;;5076712;28;20611;-58
2023/09/30 09:21:09;;;;;;;11.60;7.67;;;19.10;93.90;;;;;;5076234;28;20970;-58
2023/09/30 09:23:42;;;;;;;11.50;7.70;;;19.10;93.80;;;;;;5076327;28;20433;-58
2023/09/30 09:26:09;;;;;;;7.57;6.00;;;19.20;93.90;;;;;;5076513;28;20425;-57
2023/09/30 09:28:38;;;;;;;10.80;6.80;;;19.40;94.10;;;;;;5076475;28;20449;-57
2023/09/30 09:31:21;;;;;;;10.80;6.87;;;19.50;93.90;;;;;;5076265;28;20468;-57
2023/09/30 09:33:48;;;;;;;12.47;6.50;;;19.70;93.70;;;;;;5076386;28;20471;-58
2023/09/30 09:36:16;;;;;;;8.40;6.70;;;19.90;92.30;;;;;;5076235;28;20848;-58
2023/09/30 09:38:49;;;;;;;9.47;6.90;;;20.10;91.50;;;;;;5076181;28;20447;-57
2023/09/30 09:41:17;;;;;;;9.40;6.47;;;20.20;90.80;;;;;;5076213;28;20424;-57
2023/09/30 09:43:43;;;;;;;8.53;4.70;;;20.50;90.10;;;;;;5076118;28;20856;-57
2023/09/30 09:46:11;;;;;;;13.73;4.03;;;20.70;88.70;;;;;;5075253;28;20444;-57
2023/09/30 09:48:38;;;;;;;10.20;3.73;;;20.90;86.60;;;;;;5076006;28;20440;-58
2023/09/30 09:51:07;;;;;;;5.03;3.50;;;21.10;82.70;;;;;;5076066;28;20471;-57
2023/09/30 09:53:37;;;;;;;5.30;3.80;;;21.40;80.40;;;;;;5075676;28;20447;-58
2023/09/30 09:56:07;;;;;;;5.40;3.83;;;21.50;78.60;;;;;;5075941;28;20554;-57
2023/09/30 09:58:34;;;;;;;8.40;4.20;;;21.70;78.80;;;;;;5075867;28;20444;-58
2023/09/30 10:01:02;;;;;;;9.23;4.20;;;22.00;76.60;;;;;;5075835;28;20461;-57
2023/09/30 10:03:29;;;;;;;7.37;3.87;;;22.30;76.20;;;;;;5076031;28;20440;-58
2023/09/30 10:05:56;;;;;;;10.20;4.47;;;22.60;74.30;;;;;;5075786;28;20448;-58
2023/09/30 10:08:31;;;;;;;7.30;4.17;;;22.90;72.50;;;;;;5075499;28;20460;-58
2023/09/30 10:10:59;;;;;;;8.27;3.70;;;23.10;71.40;;;;;;5075315;28;21027;-58
2023/09/30 10:13:53;;;;;;;7.40;4.57;;;23.40;69.60;;;;;;5075739;28;20452;-57
2023/09/30 10:16:48;;;;;;;7.70;3.97;;;23.50;68.60;;;;;;5076336;28;20508;-58
2023/09/30 10:19:16;;;;;;;7.10;3.50;;;23.30;68.50;;;;;;5075305;28;20974;-58
2023/09/30 10:22:23;;;;;;;7.63;4.20;;;23.30;67.90;;;;;;5075692;28;20468;-58
2023/09/30 10:24:51;;;;;;;7.90;3.67;;;23.80;65.70;;;;;;5075159;28;20464;-58
2023/09/30 10:27:39;;;;;;;6.43;3.13;;;24.30;62.40;;;;;;5075180;28;20834;-58
2023/09/30 10:30:13;;;;;;;6.83;3.43;;;25.10;59.30;;;;;;5071647;28;20990;-58
2023/09/30 10:33:14;;;;;;;7.00;3.70;;;25.50;56.40;;;;;;5075224;28;20467;-58
2023/09/30 10:35:47;;;;;;;6.50;3.80;;;26.10;55.80;;;;;;5075870;28;20480;-58
2023/09/30 10:38:42;;;;;;;6.70;3.50;;;26.70;54.40;;;;;;5075186;28;20436;-58
2023/09/30 10:41:10;;;;;;;8.73;3.50;;;27.50;52.50;;;;;;5074631;28;21053;-58
2023/09/30 10:43:38;;;;;;;5.60;4.10;;;28.20;50.30;;;;;;5075086;28;20455;-55
2023/09/30 10:46:35;;;;;;;7.47;3.60;;;28.60;47.30;;;;;;5074985;28;20441;-56
2023/09/30 10:49:31;;;;;;;4.70;3.00;;;28.70;46.10;;;;;;5075071;28;20443;-55
2023/09/30 10:51:59;;;;;;;9.23;3.03;;;29.00;46.60;;;;;;5075038;28;20425;-55
2023/09/30 10:54:27;;;;;;;4.83;2.80;;;29.40;44.80;;;;;;5074774;28;20441;-56
2023/09/30 10:56:54;;;;;;;6.80;3.20;;;29.70;43.80;;;;;;5074735;28;20831;-56
2023/09/30 10:59:22;;;;;;;5.13;3.00;;;30.20;42.70;;;;;;5074676;28;20467;-56
2023/09/30 11:01:51;;;;;;;5.50;3.17;;;30.50;41.60;;;;;;5074734;28;20440;-56
2023/09/30 11:04:18;;;;;;;6.17;3.33;;;31.00;41.20;;;;;;5074583;28;20470;-56
2023/09/30 11:06:45;;;;;;;5.17;3.07;;;31.30;40.20;;;;;;5074610;28;20811;-56
2023/09/30 11:09:17;;;;;;;6.00;3.10;;;31.70;39.60;;;;;;5074156;28;20464;-56
2023/09/30 11:11:48;;;;;;;7.10;3.40;;;31.90;37.90;;;;;;5074503;28;20424;-56
2023/09/30 11:14:19;;;;;;;5.23;3.10;;;32.00;37.40;;;;;;5074389;28;20435;-55
2023/09/30 11:16:47;;;;;;;5.03;3.43;;;32.00;37.30;;;;;;5074336;28;20882;-56
2023/09/30 11:19:15;;;;;;;5.30;3.50;;;31.60;38.00;;;;;;5074289;28;20497;-56
2023/09/30 11:21:44;;;;;;;6.50;3.30;;;30.80;38.70;;;;;;5074243;28;20475;-55
2023/09/30 11:24:11;;;;;;;8.90;3.67;;;29.80;40.20;;;;;;5073893;28;21003;-55
2023/09/30 11:26:41;;;;;;;8.10;3.47;;;28.90;42.30;;;;;;5074196;28;20440;-55
2023/09/30 11:29:09;;;;;;;6.23;3.60;;;28.20;43.90;;;;;;5073809;28;20938;-55
2023/09/30 11:31:38;;;;;;;5.27;3.30;;;27.90;45.00;;;;;;5074003;28;20448;-55
2023/09/30 11:34:07;;;;;;;6.30;3.63;;;27.70;44.90;;;;;;5073918;28;20612;-55
2023/09/30 11:36:36;;;;;;;6.30;3.87;;;27.30;45.60;;;;;;5073899;28;20587;-55
2023/09/30 11:39:03;;;;;;;8.90;3.60;;;26.80;46.30;;;;;;5073855;28;20463;-55
2023/09/30 11:41:38;;;;;;;4.97;3.40;;;26.20;47.40;;;;;;5073905;28;20449;-56
2023/09/30 11:44:08;;;;;;;4.53;3.17;;;25.70;48.60;;;;;;5073426;28;20897;-55
2023/09/30 11:46:49;;;;;;;5.93;3.30;;;25.20;49.90;;;;;;5073819;28;20487;-55
2023/09/30 11:49:26;;;;;;;5.93;3.30;;;24.90;51.90;;;;;;5073747;28;20504;-55
2023/09/30 11:51:55;;;;;;;5.60;3.77;;;24.50;52.40;;;;;;5074002;28;20470;-55
2023/09/30 11:54:22;;;;;;;6.30;3.30;;;24.20;52.90;;;;;;5073693;28;20445;-55
2023/09/30 11:56:50;;;;;;;5.53;3.23;;;24.10;53.70;;;;;;5073626;28;20508;-55
2023/09/30 11:59:19;;;;;;;5.33;3.00;;;24.40;53.50;;;;;;5073505;28;20542;-55
2023/09/30 12:01:48;;;;;;;5.70;3.33;;;25.20;49.40;;;;;;5073537;28;20455;-55
2023/09/30 12:04:17;;;;;;;5.50;3.30;;;26.20;46.40;;;;;;5073549;28;20489;-55
2023/09/30 12:06:43;;;;;;;4.63;3.77;;;27.30;45.60;;;;;;5073565;28;20447;-55
2023/09/30 12:09:14;;;;;;;3.97;3.17;;;28.40;42.90;;;;;;5072820;28;20985;-55
2023/09/30 12:11:43;;;;;;;3.77;3.03;;;29.10;40.60;;;;;;5073197;28;20903;-55
2023/09/30 12:14:11;;;;;;;5.80;2.93;;;29.90;40.00;;;;;;5073349;28;20531;-55
2023/09/30 12:16:38;;;;;;;5.27;2.90;;;30.70;40.10;;;;;;5073385;28;20507;-56
2023/09/30 12:19:06;;;;;;;3.80;3.13;;;31.30;37.90;;;;;;5073111;28;20842;-56
2023/09/30 12:21:33;;;;;;;4.07;2.30;;;31.90;34.20;;;;;;5073465;28;20478;-56
2023/09/30 12:24:01;;;;;;;4.10;2.77;;;32.50;33.10;;;;;;5073176;28;20484;-56
2023/09/30 12:26:29;;;;;;;2.03;1.80;;;32.90;30.30;;;;;;5073067;28;20898;-56
2023/09/30 12:28:56;;;;;;;3.13;2.60;;;33.40;30.10;;;;;;5073258;28;20451;-56
2023/09/30 12:31:23;;;;;;;3.80;2.50;;;33.60;28.70;;;;;;5072924;28;20938;-56
2023/09/30 12:33:51;;;;;;;2.83;2.43;;;33.60;29.20;;;;;;5073230;28;20479;-56
2023/09/30 12:36:18;;;;;;;6.03;3.07;;;33.80;29.30;;;;;;5073172;28;20480;-56
2023/09/30 12:38:45;;;;;;;5.80;2.90;;;34.00;28.20;;;;;;5073302;28;20448;-56
2023/09/30 12:41:12;;;;;;;4.57;2.73;;;34.20;28.40;;;;;;5073098;28;20468;-56
2023/09/30 12:43:41;;;;;;;4.30;2.60;;;34.10;28.60;;;;;;5073095;28;20816;-56
2023/09/30 12:46:08;;;;;;;9.33;3.03;;;34.30;29.00;;;;;;5073145;28;20480;-56